Time,TemperatureF,DewpointF,PressureIn,WindDirection,WindDirectionDegrees,WindSpeedMPH,WindSpeedGustMPH,Humidity,HourlyPrecipIn,Conditions,Clouds,dailyrainin,SolarRadiationWatts/m^2,SoftwareType,DateUTC
2013-02-12 00:01:00,19.0,16.0,-100.00,NW,306,5.0,10.0,89,0.00,,,0.00,0.000000,,2013-02-12 06:01:00,
2013-02-12 00:32:00,19.0,16.0,-100.00,NW,306,5.0,10.0,89,0.00,,,0.00,0.000000,,2013-02-12 06:32:00,
2013-02-12 00:42:00,19.0,16.0,-100.00,NW,306,5.0,10.0,89,0.00,,,0.00,0.000000,,2013-02-12 06:42:00,
2013-02-12 00:52:00,19.0,16.0,-100.00,NW,306,5.0,10.0,89,0.00,,,0.00,0.000000,,2013-02-12 06:52:00,
2013-02-12 01:01:00,18.0,15.0,-100.00,WNW,292,5.0,11.0,88,0.00,,,0.00,0.000000,,2013-02-12 07:01:00,
2013-02-12 01:32:00,18.0,15.0,-100.00,WNW,292,5.0,11.0,88,0.00,,,0.00,0.000000,,2013-02-12 07:32:00,
2013-02-12 01:42:00,18.0,15.0,-100.00,WNW,292,5.0,11.0,88,0.00,,,0.00,0.000000,,2013-02-12 07:42:00,
2013-02-12 01:52:00,18.0,15.0,-100.00,WNW,292,5.0,11.0,88,0.00,,,0.00,0.000000,,2013-02-12 07:52:00,
2013-02-12 02:01:00,18.0,15.0,-100.00,West,276,4.0,10.0,88,0.00,,,0.00,0.000000,,2013-02-12 08:01:00,
2013-02-12 02:32:00,18.0,15.0,-100.00,West,276,4.0,10.0,88,0.00,,,0.00,0.000000,,2013-02-12 08:32:00,
2013-02-12 02:42:00,18.0,15.0,-100.00,West,276,4.0,10.0,88,0.00,,,0.00,0.000000,,2013-02-12 08:42:00,
2013-02-12 02:52:00,18.0,15.0,-100.00,West,276,4.0,10.0,88,0.00,,,0.00,0.000000,,2013-02-12 08:52:00,
2013-02-12 03:01:00,18.0,15.0,-100.00,West,273,4.0,7.0,87,0.00,,,0.00,0.000000,,2013-02-12 09:01:00,
2013-02-12 03:32:00,18.0,15.0,-100.00,West,273,4.0,7.0,87,0.00,,,0.00,0.000000,,2013-02-12 09:32:00,
2013-02-12 03:42:00,18.0,15.0,-100.00,West,273,4.0,7.0,87,0.00,,,0.00,0.000000,,2013-02-12 09:42:00,
2013-02-12 03:52:00,18.0,15.0,-100.00,West,273,4.0,7.0,87,0.00,,,0.00,0.000000,,2013-02-12 09:52:00,
2013-02-12 04:01:00,18.0,15.0,-100.00,West,281,5.0,11.0,86,0.00,,,0.00,0.000000,,2013-02-12 10:01:00,
2013-02-12 04:22:00,18.0,15.0,-100.00,West,281,5.0,11.0,86,0.00,,,0.00,0.000000,,2013-02-12 10:22:00,
2013-02-12 04:32:00,18.0,15.0,-100.00,West,281,5.0,11.0,86,0.00,,,0.00,0.000000,,2013-02-12 10:32:00,
2013-02-12 04:43:00,18.0,15.0,-100.00,West,281,5.0,11.0,86,0.00,,,0.00,0.000000,,2013-02-12 10:43:00,
2013-02-12 04:52:00,18.0,15.0,-100.00,West,281,5.0,11.0,86,0.00,,,0.00,0.000000,,2013-02-12 10:52:00,
2013-02-12 05:01:00,18.0,15.0,-100.00,West,278,3.0,9.0,88,0.00,,,0.00,0.000000,,2013-02-12 11:01:00,
2013-02-12 05:32:00,18.0,15.0,-100.00,West,278,3.0,9.0,88,0.00,,,0.00,0.000000,,2013-02-12 11:32:00,
2013-02-12 05:42:00,18.0,15.0,-100.00,West,278,3.0,9.0,88,0.00,,,0.00,0.000000,,2013-02-12 11:42:00,
2013-02-12 05:52:00,18.0,15.0,-100.00,West,278,3.0,9.0,88,0.00,,,0.00,0.000000,,2013-02-12 11:52:00,
2013-02-12 06:01:00,17.0,14.0,-100.00,West,260,5.0,8.0,87,0.00,,,0.00,0.000000,,2013-02-12 12:01:00,
2013-02-12 06:32:00,17.0,14.0,-100.00,West,260,5.0,8.0,87,0.00,,,0.00,0.000000,,2013-02-12 12:32:00,
2013-02-12 06:42:00,17.0,14.0,-100.00,West,260,5.0,8.0,87,0.00,,,0.00,0.000000,,2013-02-12 12:42:00,
2013-02-12 06:53:00,17.0,14.0,-100.00,West,260,5.0,8.0,87,0.00,,,0.00,0.000000,,2013-02-12 12:53:00,
2013-02-12 07:01:00,17.0,14.0,-100.00,West,262,5.0,10.0,86,0.00,,,0.00,0.000000,,2013-02-12 13:01:00,
2013-02-12 07:22:00,17.0,14.0,-100.00,West,262,5.0,10.0,86,0.00,,,0.00,0.000000,,2013-02-12 13:22:00,
2013-02-12 07:32:00,17.0,14.0,-100.00,West,262,5.0,10.0,86,0.00,,,0.00,0.000000,,2013-02-12 13:32:00,
2013-02-12 07:42:00,17.0,14.0,-100.00,West,262,5.0,10.0,86,0.00,,,0.00,0.000000,,2013-02-12 13:42:00,
2013-02-12 07:52:00,17.0,14.0,-100.00,West,262,5.0,10.0,86,0.00,,,0.00,0.000000,,2013-02-12 13:52:00,
2013-02-12 08:01:00,17.0,13.0,-100.00,West,267,4.0,9.0,85,0.00,,,0.00,3.000000,,2013-02-12 14:01:00,
2013-02-12 08:32:00,17.0,13.0,-100.00,West,267,4.0,9.0,85,0.00,,,0.00,3.000000,,2013-02-12 14:32:00,
2013-02-12 08:42:00,17.0,13.0,-100.00,West,267,4.0,9.0,85,0.00,,,0.00,3.000000,,2013-02-12 14:42:00,
2013-02-12 08:52:00,17.0,13.0,-100.00,West,267,4.0,9.0,85,0.00,,,0.00,3.000000,,2013-02-12 14:52:00,
2013-02-12 09:01:00,18.0,13.0,-100.00,WSW,258,6.0,10.0,80,0.00,,,0.00,21.000000,,2013-02-12 15:01:00,
2013-02-12 09:32:00,18.0,13.0,-100.00,WSW,258,6.0,10.0,80,0.00,,,0.00,21.000000,,2013-02-12 15:32:00,
2013-02-12 09:42:00,18.0,13.0,-100.00,WSW,258,6.0,10.0,80,0.00,,,0.00,21.000000,,2013-02-12 15:42:00,
2013-02-12 09:52:00,18.0,13.0,-100.00,WSW,258,6.0,10.0,80,0.00,,,0.00,21.000000,,2013-02-12 15:52:00,
2013-02-12 10:01:00,19.0,13.0,-100.00,WSW,255,7.0,13.0,78,0.00,,,0.00,37.000000,,2013-02-12 16:01:00,
2013-02-12 10:22:00,19.0,13.0,-100.00,WSW,255,7.0,13.0,78,0.00,,,0.00,37.000000,,2013-02-12 16:22:00,
2013-02-12 10:32:00,19.0,13.0,-100.00,WSW,255,7.0,13.0,78,0.00,,,0.00,37.000000,,2013-02-12 16:32:00,
2013-02-12 10:42:00,19.0,13.0,-100.00,WSW,255,7.0,13.0,78,0.00,,,0.00,37.000000,,2013-02-12 16:42:00,
2013-02-12 10:52:00,19.0,13.0,-100.00,WSW,255,7.0,13.0,78,0.00,,,0.00,37.000000,,2013-02-12 16:52:00,
2013-02-12 11:01:00,20.0,14.0,-100.00,WSW,247,7.0,13.0,78,0.00,,,0.00,54.000000,,2013-02-12 17:01:00,
2013-02-12 11:32:00,20.0,14.0,-100.00,WSW,247,7.0,13.0,78,0.00,,,0.00,54.000000,,2013-02-12 17:32:00,
2013-02-12 11:42:00,20.0,14.0,-100.00,WSW,247,7.0,13.0,78,0.00,,,0.00,54.000000,,2013-02-12 17:42:00,
2013-02-12 11:52:00,20.0,14.0,-100.00,WSW,247,7.0,13.0,78,0.00,,,0.00,54.000000,,2013-02-12 17:52:00,
2013-02-12 12:01:00,20.0,14.0,-100.00,SW,234,7.0,16.0,77,0.00,,,0.00,54.000000,,2013-02-12 18:01:00,
2013-02-12 12:32:00,20.0,14.0,-100.00,SW,234,7.0,16.0,77,0.00,,,0.00,54.000000,,2013-02-12 18:32:00,
2013-02-12 12:42:00,20.0,14.0,-100.00,SW,234,7.0,16.0,77,0.00,,,0.00,54.000000,,2013-02-12 18:42:00,
2013-02-12 12:52:00,20.0,14.0,-100.00,SW,234,7.0,16.0,77,0.00,,,0.00,54.000000,,2013-02-12 18:52:00,
2013-02-12 13:01:00,22.0,15.0,-100.00,SW,228,7.0,13.0,74,0.00,,,0.00,82.000000,,2013-02-12 19:01:00,
2013-02-12 13:32:00,22.0,15.0,-100.00,SW,228,7.0,13.0,74,0.00,,,0.00,82.000000,,2013-02-12 19:32:00,
2013-02-12 13:42:00,22.0,15.0,-100.00,SW,228,7.0,13.0,74,0.00,,,0.00,82.000000,,2013-02-12 19:42:00,
2013-02-12 13:52:00,22.0,15.0,-100.00,SW,228,7.0,13.0,74,0.00,,,0.00,82.000000,,2013-02-12 19:52:00,
2013-02-12 15:01:00,23.0,17.0,-100.00,SW,220,8.0,16.0,78,-99.99,,,0.00,67.000000,,2013-02-12 21:01:00,
2013-02-12 15:32:00,23.0,17.0,-100.00,SW,220,8.0,16.0,78,-99.99,,,0.00,67.000000,,2013-02-12 21:32:00,
2013-02-12 15:42:00,23.0,17.0,-100.00,SW,220,8.0,16.0,78,-99.99,,,0.00,67.000000,,2013-02-12 21:42:00,
2013-02-12 15:52:00,23.0,17.0,-100.00,SW,220,8.0,16.0,78,-99.99,,,0.00,67.000000,,2013-02-12 21:52:00,
2013-02-12 16:01:00,22.0,17.0,-100.00,SW,227,7.0,18.0,82,0.00,,,0.00,33.000000,,2013-02-12 22:01:00,
2013-02-12 16:22:00,22.0,17.0,-100.00,SW,227,7.0,18.0,82,0.00,,,0.00,33.000000,,2013-02-12 22:22:00,
2013-02-12 16:32:00,22.0,17.0,-100.00,SW,227,7.0,18.0,82,0.00,,,0.00,33.000000,,2013-02-12 22:32:00,
2013-02-12 16:42:00,22.0,17.0,-100.00,SW,227,7.0,18.0,82,0.00,,,0.00,33.000000,,2013-02-12 22:42:00,
2013-02-12 16:52:00,22.0,17.0,-100.00,SW,227,7.0,18.0,82,0.00,,,0.00,33.000000,,2013-02-12 22:52:00,
2013-02-12 17:01:00,22.0,18.0,-100.00,WSW,243,7.0,14.0,83,0.00,,,0.00,14.000000,,2013-02-12 23:01:00,
2013-02-12 17:32:00,22.0,18.0,-100.00,WSW,243,7.0,14.0,83,0.00,,,0.00,14.000000,,2013-02-12 23:32:00,
2013-02-12 17:42:00,22.0,18.0,-100.00,WSW,243,7.0,14.0,83,0.00,,,0.00,14.000000,,2013-02-12 23:42:00,
2013-02-12 17:52:00,22.0,18.0,-100.00,WSW,243,7.0,14.0,83,0.00,,,0.00,14.000000,,2013-02-12 23:52:00,
2013-02-12 18:01:00,22.0,18.0,-100.00,WSW,257,5.0,13.0,86,0.00,,,0.00,1.000000,,2013-02-13 00:01:00,
2013-02-12 18:32:00,22.0,18.0,-100.00,WSW,257,5.0,13.0,86,0.00,,,0.00,1.000000,,2013-02-13 00:32:00,
2013-02-12 18:42:00,22.0,18.0,-100.00,WSW,257,5.0,13.0,86,0.00,,,0.00,1.000000,,2013-02-13 00:42:00,
2013-02-12 18:52:00,22.0,18.0,-100.00,WSW,257,5.0,13.0,86,0.00,,,0.00,1.000000,,2013-02-13 00:52:00,
2013-02-12 19:01:00,22.0,19.0,-100.00,WSW,250,7.0,11.0,87,0.00,,,0.00,0.000000,,2013-02-13 01:01:00,
2013-02-12 19:42:00,22.0,19.0,-100.00,WSW,250,7.0,11.0,87,0.00,,,0.00,0.000000,,2013-02-13 01:42:00,
2013-02-12 19:52:00,22.0,19.0,-100.00,WSW,250,7.0,11.0,87,0.00,,,0.00,0.000000,,2013-02-13 01:52:00,
2013-02-12 20:01:00,22.0,18.0,-100.00,WSW,249,7.0,16.0,86,0.00,,,0.00,0.000000,,2013-02-13 02:01:00,
2013-02-12 20:42:00,22.0,18.0,-100.00,WSW,249,7.0,16.0,86,0.00,,,0.00,0.000000,,2013-02-13 02:42:00,
2013-02-12 20:52:00,22.0,18.0,-100.00,WSW,249,7.0,16.0,86,0.00,,,0.00,0.000000,,2013-02-13 02:52:00,
2013-02-12 21:01:00,21.0,18.0,-100.00,West,261,5.0,10.0,87,0.00,,,0.00,0.000000,,2013-02-13 03:01:00,
2013-02-12 21:32:00,21.0,18.0,-100.00,West,261,5.0,10.0,87,0.00,,,0.00,0.000000,,2013-02-13 03:32:00,
2013-02-12 21:42:00,21.0,18.0,-100.00,West,261,5.0,10.0,87,0.00,,,0.00,0.000000,,2013-02-13 03:42:00,
2013-02-12 21:52:00,21.0,18.0,-100.00,West,261,5.0,10.0,87,0.00,,,0.00,0.000000,,2013-02-13 03:52:00,
2013-02-12 22:01:00,20.0,17.0,-100.00,WSW,255,4.0,10.0,87,0.00,,,0.00,0.000000,,2013-02-13 04:01:00,
2013-02-12 22:32:00,20.0,17.0,-100.00,WSW,255,4.0,10.0,87,0.00,,,0.00,0.000000,,2013-02-13 04:32:00,
2013-02-12 22:42:00,20.0,17.0,-100.00,WSW,255,4.0,10.0,87,0.00,,,0.00,0.000000,,2013-02-13 04:42:00,
2013-02-12 22:52:00,20.0,17.0,-100.00,WSW,255,4.0,10.0,87,0.00,,,0.00,0.000000,,2013-02-13 04:52:00,
2013-02-12 23:01:00,20.0,17.0,-100.00,WSW,243,4.0,8.0,87,0.00,,,0.00,0.000000,,2013-02-13 05:01:00,
2013-02-12 23:32:00,20.0,17.0,-100.00,WSW,243,4.0,8.0,87,0.00,,,0.00,0.000000,,2013-02-13 05:32:00,
2013-02-12 23:42:00,20.0,17.0,-100.00,WSW,243,4.0,8.0,87,0.00,,,0.00,0.000000,,2013-02-13 05:42:00,
2013-02-12 23:52:00,20.0,17.0,-100.00,WSW,243,4.0,8.0,87,0.00,,,0.00,0.000000,,2013-02-13 05:52:00,